AFL1702 UUEE-UHWW
Flight info
| Callsign | AFL1702 |
|---|---|
| Flight time | N/A |
| Altitude | 35000 |
| Route | RILPO T753 TUNOB T791 MOVUN P149 SONIB N174 KEDOR T541 TURMA/K0900F370 T541 LEBNA L168 IVADA DCT HAB/K0902F380 DCT ARDEL B355 BG G714 DAGES |
| Aircraft | B77W/H-SDE1E2E3FGHIJ2J3J4J5M1RWXY/LB1D1 |
Departure
| Time | 2026-04-30 21:01 |
|---|---|
| Airport | Sheremetyevo International Airport (UUEE) |
Arrival
| Time | N/A |
|---|---|
| Airport | Vladivostok International Airport (UHWW) |
| Time | Latitude | Longitude | Altitude | Speed | Heading |
|---|---|---|---|---|---|
| 2026-04-30 20:39 | 55.98018 | 37.41839 | 644 ft | 0 kts | 255° |
| 2026-04-30 20:49 | 55.98019 | 37.41846 | 649 ft | 3 kts | 255° |
| 2026-04-30 20:49 | 55.98027 | 37.41892 | 646 ft | 4 kts | 255° |
| 2026-04-30 20:50 | 55.98040 | 37.41967 | 649 ft | 4 kts | 219° |
| 2026-04-30 20:50 | 55.98050 | 37.41977 | 647 ft | 4 kts | 170° |
| 2026-04-30 20:50 | 55.98063 | 37.41971 | 646 ft | 4 kts | 159° |
| 2026-04-30 20:50 | 55.98072 | 37.41965 | 646 ft | 4 kts | 157° |
| 2026-04-30 20:51 | 55.98097 | 37.41946 | 650 ft | 4 kts | 159° |
| 2026-04-30 20:51 | 55.98112 | 37.41937 | 649 ft | 0 kts | 165° |
| 2026-04-30 20:55 | 55.98106 | 37.41939 | 648 ft | 0 kts | 165° |
| 2026-04-30 20:56 | 55.98032 | 37.41975 | 648 ft | 16 kts | 165° |
| 2026-04-30 20:56 | 55.97922 | 37.42027 | 646 ft | 17 kts | 165° |
| 2026-04-30 20:56 | 55.97713 | 37.42154 | 647 ft | 13 kts | 122° |
| 2026-04-30 20:57 | 55.97706 | 37.42310 | 649 ft | 13 kts | 79° |
| 2026-04-30 20:57 | 55.97728 | 37.42468 | 648 ft | 15 kts | 75° |
| 2026-04-30 20:57 | 55.97760 | 37.42691 | 647 ft | 23 kts | 75° |
| 2026-04-30 20:58 | 55.97849 | 37.43280 | 647 ft | 25 kts | 75° |
| 2026-04-30 20:58 | 55.97893 | 37.43583 | 650 ft | 22 kts | 76° |
| 2026-04-30 20:58 | 55.97928 | 37.43813 | 645 ft | 19 kts | 75° |
| 2026-04-30 20:58 | 55.97938 | 37.43876 | 647 ft | 0 kts | 75° |
| 2026-04-30 20:59 | 55.97916 | 37.44015 | 650 ft | 9 kts | 136° |
| 2026-04-30 20:59 | 55.97853 | 37.44062 | 651 ft | 11 kts | 168° |
| 2026-04-30 21:00 | 55.97776 | 37.43961 | 648 ft | 0 kts | 250° |
| 2026-04-30 21:00 | 55.97532 | 37.42348 | 650 ft | 165 kts | 255° |
| 2026-04-30 21:01 | 55.96802 | 37.37783 | 2870 ft | 191 kts | 253° |
| 2026-04-30 21:01 | 55.96395 | 37.35343 | 3717 ft | 222 kts | 256° |
| 2026-04-30 21:01 | 55.95518 | 37.29582 | 5373 ft | 253 kts | 256° |
| 2026-04-30 21:02 | 55.95046 | 37.26506 | 6117 ft | 262 kts | 256° |
| 2026-04-30 21:02 | 55.94555 | 37.23341 | 6915 ft | 268 kts | 256° |
| 2026-04-30 21:02 | 55.94052 | 37.20117 | 7769 ft | 272 kts | 256° |
| 2026-04-30 21:02 | 55.93540 | 37.16853 | 8640 ft | 275 kts | 256° |
| 2026-04-30 21:03 | 55.93020 | 37.13551 | 9490 ft | 279 kts | 256° |
| 2026-04-30 21:03 | 55.92481 | 37.10145 | 10322 ft | 283 kts | 256° |
| 2026-04-30 21:03 | 55.91945 | 37.06764 | 11083 ft | 287 kts | 256° |
| 2026-04-30 21:03 | 55.91615 | 37.03243 | 11699 ft | 288 kts | 276° |
| 2026-04-30 21:04 | 55.92132 | 36.99765 | 11968 ft | 305 kts | 301° |
| 2026-04-30 21:04 | 55.93563 | 36.96856 | 12189 ft | 325 kts | 326° |
| 2026-04-30 21:04 | 55.98133 | 36.95228 | 12948 ft | 359 kts | 13° |
| 2026-04-30 21:05 | 56.00419 | 36.97056 | 13704 ft | 367 kts | 33° |
| 2026-04-30 21:05 | 56.02477 | 36.99860 | 14524 ft | 373 kts | 38° |
| 2026-04-30 21:05 | 56.04452 | 37.02867 | 15367 ft | 375 kts | 40° |
| 2026-04-30 21:05 | 56.06428 | 37.05942 | 16269 ft | 371 kts | 40° |
| 2026-04-30 21:06 | 56.08320 | 37.08866 | 16439 ft | 353 kts | 39° |
| 2026-04-30 21:06 | 56.10168 | 37.11676 | 16421 ft | 344 kts | 39° |
| 2026-04-30 21:06 | 56.12003 | 37.14426 | 16443 ft | 347 kts | 38° |
| 2026-04-30 21:06 | 56.13921 | 37.17267 | 16606 ft | 367 kts | 38° |
| 2026-04-30 21:07 | 56.15917 | 37.20207 | 17135 ft | 378 kts | 38° |
| 2026-04-30 21:07 | 56.17977 | 37.23235 | 17828 ft | 385 kts | 38° |
| 2026-04-30 21:07 | 56.20043 | 37.26269 | 18603 ft | 389 kts | 38° |
| 2026-04-30 21:07 | 56.22159 | 37.29379 | 19356 ft | 391 kts | 38° |
| 2026-04-30 21:08 | 56.24259 | 37.32466 | 20096 ft | 393 kts | 38° |
| 2026-04-30 21:08 | 56.26391 | 37.35604 | 20813 ft | 396 kts | 38° |
| 2026-04-30 21:08 | 56.28535 | 37.38762 | 21511 ft | 400 kts | 38° |
| 2026-04-30 21:08 | 56.30691 | 37.41943 | 22172 ft | 403 kts | 38° |
| 2026-04-30 21:09 | 56.32160 | 37.44113 | 22629 ft | 405 kts | 38° |
| 2026-04-30 21:09 | 56.35057 | 37.48401 | 23508 ft | 410 kts | 37° |
| 2026-04-30 21:09 | 56.37278 | 37.51692 | 24081 ft | 413 kts | 37° |
| 2026-04-30 21:09 | 56.39506 | 37.55001 | 24574 ft | 417 kts | 38° |
| 2026-04-30 21:10 | 56.41745 | 37.58330 | 25071 ft | 421 kts | 38° |
| 2026-04-30 21:10 | 56.44014 | 37.61710 | 25566 ft | 424 kts | 38° |
| 2026-04-30 21:10 | 56.45527 | 37.63967 | 25881 ft | 426 kts | 38° |
| 2026-04-30 21:10 | 56.47818 | 37.67532 | 26346 ft | 431 kts | 40° |
| 2026-04-30 21:11 | 56.50036 | 37.71198 | 26790 ft | 434 kts | 40° |
| 2026-04-30 21:11 | 56.52298 | 37.74886 | 27249 ft | 438 kts | 39° |
| 2026-04-30 21:11 | 56.54553 | 37.78433 | 27691 ft | 441 kts | 38° |
| 2026-04-30 21:11 | 56.56945 | 37.82076 | 28110 ft | 444 kts | 38° |
| 2026-04-30 21:12 | 56.59346 | 37.85657 | 28516 ft | 447 kts | 37° |
| 2026-04-30 21:12 | 56.61773 | 37.89239 | 28915 ft | 450 kts | 37° |
| 2026-04-30 21:12 | 56.64208 | 37.92825 | 29286 ft | 453 kts | 37° |
| 2026-04-30 21:12 | 56.66674 | 37.96463 | 29655 ft | 456 kts | 37° |
| 2026-04-30 21:13 | 56.69133 | 38.00102 | 29971 ft | 459 kts | 37° |
| 2026-04-30 21:13 | 56.71624 | 38.03798 | 30303 ft | 461 kts | 37° |
| 2026-04-30 21:13 | 56.74112 | 38.07502 | 30640 ft | 461 kts | 38° |
| 2026-04-30 21:13 | 56.76598 | 38.11210 | 30977 ft | 462 kts | 38° |
| 2026-04-30 21:14 | 56.79078 | 38.14916 | 31303 ft | 463 kts | 38° |
| 2026-04-30 21:14 | 56.81570 | 38.18646 | 31604 ft | 463 kts | 38° |
| 2026-04-30 21:14 | 56.84056 | 38.22372 | 31915 ft | 464 kts | 38° |
| 2026-04-30 21:14 | 56.86549 | 38.26115 | 32221 ft | 465 kts | 38° |
| 2026-04-30 21:15 | 56.89045 | 38.29903 | 32546 ft | 465 kts | 38° |
| 2026-04-30 21:15 | 56.91515 | 38.33737 | 32843 ft | 466 kts | 39° |
| 2026-04-30 21:15 | 56.93979 | 38.37606 | 33146 ft | 466 kts | 39° |
| 2026-04-30 21:15 | 56.96444 | 38.41492 | 33426 ft | 467 kts | 39° |
| 2026-04-30 21:16 | 56.98905 | 38.45376 | 33722 ft | 468 kts | 39° |
| 2026-04-30 21:16 | 57.01375 | 38.49270 | 34018 ft | 468 kts | 39° |
| 2026-04-30 21:16 | 57.03842 | 38.53162 | 34270 ft | 468 kts | 39° |
| 2026-04-30 21:16 | 57.06318 | 38.57071 | 34482 ft | 469 kts | 39° |
| 2026-04-30 21:17 | 57.08757 | 38.60926 | 34702 ft | 469 kts | 39° |
| 2026-04-30 21:17 | 57.11246 | 38.64866 | 34918 ft | 470 kts | 39° |
| 2026-04-30 21:17 | 57.13713 | 38.68777 | 35084 ft | 471 kts | 39° |
| 2026-04-30 21:17 | 57.16213 | 38.72749 | 35108 ft | 473 kts | 39° |
| 2026-04-30 21:18 | 57.21177 | 38.80659 | 35167 ft | 472 kts | 39° |
| 2026-04-30 21:18 | 57.26130 | 38.88583 | 35177 ft | 471 kts | 39° |
| 2026-04-30 21:19 | 57.31078 | 38.96526 | 35178 ft | 471 kts | 40° |
| 2026-04-30 21:19 | 57.36032 | 39.04509 | 35175 ft | 472 kts | 40° |
| 2026-04-30 21:20 | 57.40964 | 39.12487 | 35178 ft | 472 kts | 40° |
| 2026-04-30 21:20 | 57.45905 | 39.20508 | 35178 ft | 472 kts | 40° |
| 2026-04-30 21:21 | 57.50757 | 39.28408 | 35173 ft | 472 kts | 40° |
| 2026-04-30 21:22 | 57.56506 | 39.37789 | 35172 ft | 472 kts | 40° |
| 2026-04-30 21:23 | 57.65531 | 39.52601 | 35171 ft | 473 kts | 40° |
| 2026-04-30 21:23 | 57.72940 | 39.64841 | 35171 ft | 473 kts | 40° |
| 2026-04-30 21:24 | 57.77821 | 39.72942 | 35181 ft | 479 kts | 40° |
| 2026-04-30 21:24 | 57.82835 | 39.81296 | 35181 ft | 486 kts | 40° |
| 2026-04-30 21:25 | 57.90419 | 39.94010 | 35177 ft | 492 kts | 41° |
| 2026-04-30 21:26 | 57.98070 | 40.06998 | 35174 ft | 495 kts | 41° |
| 2026-04-30 21:27 | 58.05753 | 40.20111 | 35178 ft | 494 kts | 41° |
| 2026-04-30 21:27 | 58.10795 | 40.28755 | 35178 ft | 494 kts | 41° |
| 2026-04-30 21:28 | 58.18437 | 40.41910 | 35177 ft | 495 kts | 41° |
| 2026-04-30 21:29 | 58.26104 | 40.55021 | 35177 ft | 495 kts | 41° |
| 2026-04-30 21:30 | 58.38871 | 40.77025 | 35182 ft | 495 kts | 41° |
| 2026-04-30 21:32 | 58.58620 | 41.11547 | 35184 ft | 497 kts | 41° |
| 2026-04-30 21:32 | 58.63607 | 41.20350 | 35184 ft | 497 kts | 41° |
| 2026-04-30 21:33 | 58.71234 | 41.33885 | 35181 ft | 497 kts | 42° |
| 2026-04-30 21:34 | 58.76320 | 41.42930 | 35186 ft | 498 kts | 40° |
| 2026-04-30 21:34 | 58.84535 | 41.55010 | 35191 ft | 497 kts | 35° |
| 2026-04-30 21:35 | 58.90140 | 41.62865 | 35189 ft | 497 kts | 35° |
| 2026-04-30 21:35 | 58.95717 | 41.70797 | 35189 ft | 498 kts | 36° |
| 2026-04-30 21:36 | 59.01279 | 41.78796 | 35189 ft | 498 kts | 36° |
| 2026-04-30 21:37 | 59.12180 | 41.94578 | 35194 ft | 498 kts | 36° |
| 2026-04-30 21:37 | 59.17734 | 42.02662 | 35194 ft | 498 kts | 36° |
| 2026-04-30 21:38 | 59.23283 | 42.10774 | 35190 ft | 499 kts | 36° |
| 2026-04-30 21:38 | 59.28767 | 42.18824 | 35188 ft | 499 kts | 36° |
| 2026-04-30 21:39 | 59.34326 | 42.27016 | 35187 ft | 499 kts | 36° |
| 2026-04-30 21:39 | 59.39646 | 42.35632 | 35183 ft | 500 kts | 44° |
| 2026-04-30 21:40 | 59.44372 | 42.45783 | 35185 ft | 501 kts | 47° |
| 2026-04-30 21:40 | 59.48999 | 42.56058 | 35182 ft | 502 kts | 47° |
| 2026-04-30 21:41 | 59.53648 | 42.66299 | 35180 ft | 502 kts | 47° |
| 2026-04-30 21:41 | 59.58316 | 42.76545 | 35183 ft | 502 kts | 47° |
| 2026-04-30 21:42 | 59.62993 | 42.86848 | 35181 ft | 502 kts | 47° |
| 2026-04-30 21:42 | 59.67616 | 42.97088 | 35178 ft | 503 kts | 47° |
| 2026-04-30 21:43 | 59.71508 | 43.05745 | 35180 ft | 503 kts | 47° |
| 2026-04-30 21:43 | 59.76940 | 43.17878 | 35177 ft | 503 kts | 47° |
| 2026-04-30 21:44 | 59.81588 | 43.28295 | 35180 ft | 504 kts | 47° |
| 2026-04-30 21:44 | 59.86226 | 43.38736 | 35174 ft | 504 kts | 47° |
| 2026-04-30 21:45 | 59.90215 | 43.47754 | 35176 ft | 504 kts | 48° |
| 2026-04-30 21:45 | 59.94786 | 43.58235 | 35178 ft | 504 kts | 50° |
| 2026-04-30 21:46 | 59.98829 | 43.69700 | 35177 ft | 505 kts | 56° |
| 2026-04-30 21:46 | 60.02686 | 43.81460 | 35170 ft | 506 kts | 56° |
| 2026-04-30 21:47 | 60.05919 | 43.91312 | 35171 ft | 506 kts | 56° |
| 2026-04-30 21:47 | 60.10432 | 44.04980 | 35168 ft | 506 kts | 56° |
| 2026-04-30 21:48 | 60.14317 | 44.16757 | 35169 ft | 506 kts | 56° |
| 2026-04-30 21:48 | 60.18183 | 44.28539 | 35165 ft | 506 kts | 56° |
| 2026-04-30 21:49 | 60.21429 | 44.38486 | 35171 ft | 507 kts | 56° |
| 2026-04-30 21:49 | 60.25287 | 44.50366 | 35167 ft | 507 kts | 56° |
| 2026-04-30 21:50 | 60.29137 | 44.62281 | 35164 ft | 508 kts | 56° |
| 2026-04-30 21:50 | 60.32952 | 44.74148 | 35164 ft | 508 kts | 56° |
| 2026-04-30 21:51 | 60.36785 | 44.86133 | 35160 ft | 508 kts | 56° |
| 2026-04-30 21:51 | 60.40604 | 44.98139 | 35168 ft | 508 kts | 57° |
| 2026-04-30 21:52 | 60.44418 | 45.10189 | 35159 ft | 509 kts | 57° |
| 2026-04-30 21:52 | 60.48234 | 45.22301 | 35166 ft | 509 kts | 57° |
| 2026-04-30 21:53 | 60.51882 | 45.34594 | 35159 ft | 510 kts | 61° |
| 2026-04-30 21:53 | 60.55199 | 45.47317 | 35158 ft | 510 kts | 62° |
| 2026-04-30 21:54 | 60.58479 | 45.60112 | 35159 ft | 510 kts | 62° |
| 2026-04-30 21:54 | 60.61780 | 45.72914 | 35153 ft | 511 kts | 62° |
| 2026-04-30 21:55 | 60.65082 | 45.85717 | 35157 ft | 511 kts | 62° |
| 2026-04-30 21:55 | 60.68380 | 45.98581 | 35152 ft | 511 kts | 62° |
| 2026-04-30 21:56 | 60.71662 | 46.11468 | 35152 ft | 512 kts | 62° |
| 2026-04-30 21:56 | 60.74935 | 46.24389 | 35151 ft | 512 kts | 62° |
| 2026-04-30 21:57 | 60.78091 | 46.37443 | 35148 ft | 513 kts | 65° |
| 2026-04-30 21:57 | 60.80973 | 46.50813 | 35149 ft | 513 kts | 66° |
| 2026-04-30 21:58 | 60.83808 | 46.64258 | 35149 ft | 514 kts | 66° |
| 2026-04-30 21:58 | 60.86657 | 46.77703 | 35149 ft | 514 kts | 66° |
| 2026-04-30 21:59 | 60.89510 | 46.91158 | 35148 ft | 514 kts | 66° |
| 2026-04-30 22:00 | 60.93773 | 47.11402 | 35143 ft | 515 kts | 66° |
| 2026-04-30 22:00 | 60.97994 | 47.31663 | 35145 ft | 516 kts | 66° |
| 2026-04-30 22:01 | 61.00800 | 47.45249 | 35136 ft | 516 kts | 66° |
| 2026-04-30 22:01 | 61.03600 | 47.58898 | 35144 ft | 516 kts | 67° |
| 2026-04-30 22:02 | 61.06382 | 47.72547 | 35144 ft | 517 kts | 67° |
| 2026-04-30 22:02 | 61.09157 | 47.86253 | 35141 ft | 517 kts | 67° |
| 2026-04-30 22:03 | 61.11919 | 47.99981 | 35142 ft | 518 kts | 67° |
| 2026-04-30 22:03 | 61.14677 | 48.13775 | 35135 ft | 518 kts | 67° |
| 2026-04-30 22:04 | 61.17432 | 48.27548 | 35133 ft | 518 kts | 67° |
| 2026-04-30 22:05 | 61.21559 | 48.48302 | 35129 ft | 519 kts | 68° |
| 2026-04-30 22:05 | 61.24290 | 48.62173 | 35120 ft | 520 kts | 68° |
| 2026-04-30 22:06 | 61.27014 | 48.76112 | 35127 ft | 520 kts | 68° |
| 2026-04-30 22:06 | 61.31073 | 48.97058 | 35118 ft | 521 kts | 68° |
| 2026-04-30 22:07 | 61.33764 | 49.11072 | 35115 ft | 521 kts | 68° |
| 2026-04-30 22:07 | 61.36442 | 49.25116 | 35109 ft | 522 kts | 69° |
| 2026-04-30 22:08 | 61.39109 | 49.39189 | 35111 ft | 523 kts | 69° |
| 2026-04-30 22:08 | 61.41739 | 49.53343 | 35101 ft | 523 kts | 70° |
| 2026-04-30 22:09 | 61.44297 | 49.67570 | 35099 ft | 523 kts | 70° |
| 2026-04-30 22:09 | 61.46841 | 49.81830 | 35094 ft | 523 kts | 70° |
| 2026-04-30 22:10 | 61.49380 | 49.96108 | 35098 ft | 524 kts | 70° |
| 2026-04-30 22:10 | 61.51912 | 50.10428 | 35092 ft | 524 kts | 70° |
| 2026-04-30 22:11 | 61.55683 | 50.31962 | 35084 ft | 525 kts | 70° |
| 2026-04-30 22:12 | 61.58184 | 50.46385 | 35080 ft | 525 kts | 70° |
| 2026-04-30 22:12 | 61.60663 | 50.60794 | 35077 ft | 526 kts | 71° |
| 2026-04-30 22:13 | 61.63137 | 50.75273 | 35079 ft | 526 kts | 71° |
| 2026-04-30 22:13 | 61.65838 | 50.89482 | 35065 ft | 527 kts | 64° |
| 2026-04-30 22:14 | 61.69277 | 51.03138 | 35077 ft | 528 kts | 62° |
| 2026-04-30 22:14 | 61.72754 | 51.16753 | 35084 ft | 528 kts | 62° |
| 2026-04-30 22:15 | 61.76175 | 51.30490 | 35073 ft | 529 kts | 63° |
| 2026-04-30 22:15 | 61.79561 | 51.44285 | 35089 ft | 529 kts | 63° |
| 2026-04-30 22:16 | 61.82942 | 51.58125 | 35100 ft | 530 kts | 63° |
| 2026-04-30 22:17 | 61.89648 | 51.85919 | 35088 ft | 530 kts | 64° |
| 2026-04-30 22:17 | 61.94639 | 52.06874 | 35093 ft | 531 kts | 64° |
| 2026-04-30 22:18 | 61.99606 | 52.27928 | 35096 ft | 531 kts | 64° |
| 2026-04-30 22:19 | 62.04523 | 52.49073 | 35103 ft | 532 kts | 64° |
| 2026-04-30 22:20 | 62.09417 | 52.70320 | 35108 ft | 532 kts | 64° |
| 2026-04-30 22:20 | 62.14256 | 52.91527 | 35109 ft | 532 kts | 65° |
| 2026-04-30 22:21 | 62.17491 | 53.05822 | 35119 ft | 533 kts | 65° |
| 2026-04-30 22:21 | 62.20705 | 53.20122 | 35115 ft | 534 kts | 65° |
| 2026-04-30 22:22 | 62.23907 | 53.34463 | 35112 ft | 534 kts | 65° |
| 2026-04-30 22:22 | 62.27099 | 53.48847 | 35113 ft | 534 kts | 65° |
| 2026-04-30 22:23 | 62.30275 | 53.63270 | 35116 ft | 534 kts | 65° |
| 2026-04-30 22:23 | 62.33440 | 53.77734 | 35116 ft | 534 kts | 65° |
| 2026-04-30 22:24 | 62.36595 | 53.92237 | 35117 ft | 534 kts | 66° |
| 2026-04-30 22:24 | 62.39734 | 54.06753 | 35115 ft | 535 kts | 66° |
| 2026-04-30 22:25 | 62.42867 | 54.21318 | 35114 ft | 535 kts | 66° |
| 2026-04-30 22:25 | 62.45985 | 54.35912 | 35116 ft | 535 kts | 66° |
| 2026-04-30 22:26 | 62.50634 | 54.57872 | 35117 ft | 536 kts | 66° |
| 2026-04-30 22:27 | 62.53719 | 54.72578 | 35118 ft | 536 kts | 66° |
| 2026-04-30 22:27 | 62.58313 | 54.94665 | 35114 ft | 536 kts | 66° |
| 2026-04-30 22:28 | 62.62879 | 55.16856 | 35117 ft | 537 kts | 67° |
| 2026-04-30 22:29 | 62.68938 | 55.46541 | 35116 ft | 537 kts | 67° |
| 2026-04-30 22:31 | 62.79470 | 55.98770 | 35119 ft | 538 kts | 67° |
| 2026-04-30 22:32 | 62.86871 | 56.36339 | 35112 ft | 538 kts | 68° |
| 2026-04-30 22:33 | 62.94185 | 56.74162 | 35117 ft | 539 kts | 68° |
| 2026-04-30 22:35 | 63.01390 | 57.12133 | 35123 ft | 540 kts | 68° |
| 2026-04-30 22:36 | 63.08058 | 57.47932 | 35125 ft | 540 kts | 69° |
| 2026-04-30 22:37 | 63.13691 | 57.78692 | 35127 ft | 540 kts | 69° |
| 2026-04-30 22:38 | 63.19245 | 58.09507 | 35129 ft | 540 kts | 69° |
| 2026-04-30 22:39 | 63.23386 | 58.32804 | 35115 ft | 544 kts | 70° |
| 2026-04-30 22:40 | 63.31654 | 58.80152 | 35126 ft | 549 kts | 70° |
| 2026-04-30 22:41 | 63.38437 | 59.19884 | 35118 ft | 548 kts | 70° |
| 2026-04-30 22:43 | 63.46423 | 59.67747 | 35114 ft | 548 kts | 71° |
| 2026-04-30 22:44 | 63.50570 | 60.00296 | 35115 ft | 546 kts | 79° |
| 2026-04-30 22:45 | 63.55423 | 60.50314 | 35111 ft | 548 kts | 79° |
| 2026-04-30 22:47 | 63.60242 | 61.00524 | 35108 ft | 549 kts | 80° |
| 2026-04-30 22:48 | 63.63350 | 61.34108 | 35104 ft | 550 kts | 80° |
| 2026-04-30 22:49 | 63.67891 | 61.84895 | 35104 ft | 552 kts | 81° |
| 2026-04-30 22:51 | 63.72258 | 62.35915 | 35106 ft | 553 kts | 81° |
| 2026-04-30 22:52 | 63.74381 | 62.61568 | 35108 ft | 554 kts | 81° |
| 2026-04-30 22:53 | 63.77144 | 62.95880 | 35101 ft | 556 kts | 82° |
| 2026-04-30 22:53 | 63.79166 | 63.21700 | 35099 ft | 556 kts | 82° |
| 2026-04-30 22:55 | 63.82439 | 63.64896 | 35098 ft | 557 kts | 82° |
| 2026-04-30 22:56 | 63.84967 | 63.99543 | 35097 ft | 558 kts | 83° |
| 2026-04-30 22:57 | 63.88014 | 64.42969 | 35097 ft | 559 kts | 83° |
| 2026-04-30 22:58 | 63.90428 | 64.77884 | 35094 ft | 560 kts | 83° |
| 2026-04-30 22:59 | 63.95227 | 65.29866 | 35092 ft | 563 kts | 76° |